sensor_id;sensor_type;location;lat;lon;timestamp;P1;durP1;ratioP1;P2;durP2;ratioP2
12271;SDS011;6198;51.446;6.698;2023-06-05T00:00:59;5.03;;;3.10;;
12271;SDS011;6198;51.446;6.698;2023-06-05T00:03:25;5.37;;;2.77;;
12271;SDS011;6198;51.446;6.698;2023-06-05T00:05:52;3.73;;;2.87;;
12271;SDS011;6198;51.446;6.698;2023-06-05T00:08:18;4.43;;;2.60;;
12271;SDS011;6198;51.446;6.698;2023-06-05T00:10:43;3.33;;;2.70;;
12271;SDS011;6198;51.446;6.698;2023-06-05T00:13:10;4.90;;;2.73;;
12271;SDS011;6198;51.446;6.698;2023-06-05T00:15:36;5.13;;;2.87;;
12271;SDS011;6198;51.446;6.698;2023-06-05T00:18:02;4.07;;;2.90;;
12271;SDS011;6198;51.446;6.698;2023-06-05T00:20:29;3.53;;;2.73;;
12271;SDS011;6198;51.446;6.698;2023-06-05T00:22:55;9.60;;;2.83;;
12271;SDS011;6198;51.446;6.698;2023-06-05T00:25:21;3.77;;;2.53;;
12271;SDS011;6198;51.446;6.698;2023-06-05T00:27:47;5.40;;;2.87;;
12271;SDS011;6198;51.446;6.698;2023-06-05T00:30:13;5.53;;;3.20;;
12271;SDS011;6198;51.446;6.698;2023-06-05T00:32:39;6.10;;;2.87;;
12271;SDS011;6198;51.446;6.698;2023-06-05T00:35:05;4.23;;;2.87;;
12271;SDS011;6198;51.446;6.698;2023-06-05T00:37:32;5.90;;;2.93;;
12271;SDS011;6198;51.446;6.698;2023-06-05T00:39:58;4.90;;;3.13;;
12271;SDS011;6198;51.446;6.698;2023-06-05T00:42:25;6.43;;;3.53;;
12271;SDS011;6198;51.446;6.698;2023-06-05T00:44:53;3.47;;;2.73;;
12271;SDS011;6198;51.446;6.698;2023-06-05T00:47:20;5.03;;;3.50;;
12271;SDS011;6198;51.446;6.698;2023-06-05T00:49:46;4.70;;;3.10;;
12271;SDS011;6198;51.446;6.698;2023-06-05T00:52:12;3.60;;;2.87;;
12271;SDS011;6198;51.446;6.698;2023-06-05T00:54:39;5.90;;;3.10;;
12271;SDS011;6198;51.446;6.698;2023-06-05T00:57:05;5.80;;;3.03;;
12271;SDS011;6198;51.446;6.698;2023-06-05T00:59:32;4.53;;;2.93;;
12271;SDS011;6198;51.446;6.698;2023-06-05T01:01:59;6.63;;;3.10;;
12271;SDS011;6198;51.446;6.698;2023-06-05T01:04:27;4.77;;;2.80;;
12271;SDS011;6198;51.446;6.698;2023-06-05T01:06:53;10.67;;;3.20;;
12271;SDS011;6198;51.446;6.698;2023-06-05T01:09:22;4.87;;;3.27;;
12271;SDS011;6198;51.446;6.698;2023-06-05T01:14:21;5.07;;;3.03;;
12271;SDS011;6198;51.446;6.698;2023-06-05T01:16:48;3.60;;;2.83;;
12271;SDS011;6198;51.446;6.698;2023-06-05T01:19:16;4.30;;;3.07;;
12271;SDS011;6198;51.446;6.698;2023-06-05T01:21:42;5.50;;;3.00;;
12271;SDS011;6198;51.446;6.698;2023-06-05T01:24:08;5.00;;;2.97;;
12271;SDS011;6198;51.446;6.698;2023-06-05T01:29:30;7.27;;;3.43;;
12271;SDS011;6198;51.446;6.698;2023-06-05T01:31:59;7.93;;;4.17;;
12271;SDS011;6198;51.446;6.698;2023-06-05T01:34:28;5.80;;;3.70;;
12271;SDS011;6198;51.446;6.698;2023-06-05T01:36:54;6.67;;;2.87;;
12271;SDS011;6198;51.446;6.698;2023-06-05T01:39:21;8.30;;;3.50;;
12271;SDS011;6198;51.446;6.698;2023-06-05T01:41:48;5.60;;;3.30;;
12271;SDS011;6198;51.446;6.698;2023-06-05T01:44:15;8.00;;;3.50;;
12271;SDS011;6198;51.446;6.698;2023-06-05T01:46:43;7.23;;;3.60;;
12271;SDS011;6198;51.446;6.698;2023-06-05T01:49:09;6.93;;;3.70;;
12271;SDS011;6198;51.446;6.698;2023-06-05T01:51:35;6.73;;;3.90;;
12271;SDS011;6198;51.446;6.698;2023-06-05T01:54:01;5.60;;;4.27;;
12271;SDS011;6198;51.446;6.698;2023-06-05T01:56:27;7.07;;;3.60;;
12271;SDS011;6198;51.446;6.698;2023-06-05T01:58:55;6.20;;;3.47;;
12271;SDS011;6198;51.446;6.698;2023-06-05T02:01:21;6.47;;;3.87;;
12271;SDS011;6198;51.446;6.698;2023-06-05T02:03:48;5.10;;;4.00;;
12271;SDS011;6198;51.446;6.698;2023-06-05T02:06:15;8.67;;;3.90;;
12271;SDS011;6198;51.446;6.698;2023-06-05T02:08:41;7.13;;;3.80;;
12271;SDS011;6198;51.446;6.698;2023-06-05T02:11:07;6.90;;;3.97;;
12271;SDS011;6198;51.446;6.698;2023-06-05T02:13:39;5.23;;;3.40;;
12271;SDS011;6198;51.446;6.698;2023-06-05T02:16:06;7.10;;;3.93;;
12271;SDS011;6198;51.446;6.698;2023-06-05T02:18:33;7.20;;;3.60;;
12271;SDS011;6198;51.446;6.698;2023-06-05T02:21:02;6.63;;;4.10;;
12271;SDS011;6198;51.446;6.698;2023-06-05T02:23:28;7.90;;;4.30;;
12271;SDS011;6198;51.446;6.698;2023-06-05T02:25:54;5.57;;;3.77;;
12271;SDS011;6198;51.446;6.698;2023-06-05T02:28:20;4.63;;;4.13;;
12271;SDS011;6198;51.446;6.698;2023-06-05T02:30:46;6.13;;;4.50;;
12271;SDS011;6198;51.446;6.698;2023-06-05T02:33:13;5.93;;;3.67;;
12271;SDS011;6198;51.446;6.698;2023-06-05T02:35:39;4.73;;;3.90;;
12271;SDS011;6198;51.446;6.698;2023-06-05T02:38:06;4.73;;;3.83;;
12271;SDS011;6198;51.446;6.698;2023-06-05T02:40:32;4.77;;;4.00;;
12271;SDS011;6198;51.446;6.698;2023-06-05T02:42:58;4.77;;;3.93;;
12271;SDS011;6198;51.446;6.698;2023-06-05T02:45:25;7.97;;;3.87;;
12271;SDS011;6198;51.446;6.698;2023-06-05T02:47:51;5.30;;;4.10;;
12271;SDS011;6198;51.446;6.698;2023-06-05T02:50:17;4.77;;;4.27;;
12271;SDS011;6198;51.446;6.698;2023-06-05T02:52:43;7.23;;;4.53;;
12271;SDS011;6198;51.446;6.698;2023-06-05T02:55:08;6.83;;;4.57;;
12271;SDS011;6198;51.446;6.698;2023-06-05T02:57:34;5.53;;;3.90;;
12271;SDS011;6198;51.446;6.698;2023-06-05T03:00:07;6.70;;;3.93;;
12271;SDS011;6198;51.446;6.698;2023-06-05T03:02:33;6.33;;;4.77;;
12271;SDS011;6198;51.446;6.698;2023-06-05T03:05:03;6.23;;;3.90;;
12271;SDS011;6198;51.446;6.698;2023-06-05T03:07:29;8.57;;;3.90;;
12271;SDS011;6198;51.446;6.698;2023-06-05T03:09:55;7.90;;;4.27;;
12271;SDS011;6198;51.446;6.698;2023-06-05T03:12:21;4.43;;;3.97;;
12271;SDS011;6198;51.446;6.698;2023-06-05T03:14:47;5.90;;;3.90;;
12271;SDS011;6198;51.446;6.698;2023-06-05T03:17:13;5.03;;;4.03;;
12271;SDS011;6198;51.446;6.698;2023-06-05T03:19:39;9.23;;;4.67;;
12271;SDS011;6198;51.446;6.698;2023-06-05T03:22:05;6.33;;;4.03;;
12271;SDS011;6198;51.446;6.698;2023-06-05T03:24:31;5.87;;;4.00;;
12271;SDS011;6198;51.446;6.698;2023-06-05T03:26:57;4.40;;;4.00;;
12271;SDS011;6198;51.446;6.698;2023-06-05T03:29:23;5.90;;;4.60;;
12271;SDS011;6198;51.446;6.698;2023-06-05T03:31:49;7.90;;;4.60;;
12271;SDS011;6198;51.446;6.698;2023-06-05T03:34:15;7.70;;;4.33;;
12271;SDS011;6198;51.446;6.698;2023-06-05T03:36:41;8.47;;;4.60;;
12271;SDS011;6198;51.446;6.698;2023-06-05T03:39:07;7.73;;;4.93;;
12271;SDS011;6198;51.446;6.698;2023-06-05T03:41:33;9.80;;;4.70;;
12271;SDS011;6198;51.446;6.698;2023-06-05T03:44:00;8.83;;;5.03;;
12271;SDS011;6198;51.446;6.698;2023-06-05T03:46:28;8.10;;;4.80;;
12271;SDS011;6198;51.446;6.698;2023-06-05T03:48:54;7.70;;;4.40;;
12271;SDS011;6198;51.446;6.698;2023-06-05T03:51:24;6.73;;;4.63;;
12271;SDS011;6198;51.446;6.698;2023-06-05T03:53:54;7.10;;;4.93;;
12271;SDS011;6198;51.446;6.698;2023-06-05T03:56:21;8.57;;;4.70;;
12271;SDS011;6198;51.446;6.698;2023-06-05T03:58:48;9.33;;;5.00;;
12271;SDS011;6198;51.446;6.698;2023-06-05T04:01:14;7.90;;;4.90;;
12271;SDS011;6198;51.446;6.698;2023-06-05T04:03:40;8.43;;;4.90;;
12271;SDS011;6198;51.446;6.698;2023-06-05T04:06:06;8.20;;;4.73;;
12271;SDS011;6198;51.446;6.698;2023-06-05T04:08:35;10.07;;;5.33;;
12271;SDS011;6198;51.446;6.698;2023-06-05T04:11:02;8.93;;;5.17;;
12271;SDS011;6198;51.446;6.698;2023-06-05T04:13:28;7.07;;;5.37;;
12271;SDS011;6198;51.446;6.698;2023-06-05T04:15:54;6.73;;;5.30;;
12271;SDS011;6198;51.446;6.698;2023-06-05T04:18:20;7.60;;;5.50;;
12271;SDS011;6198;51.446;6.698;2023-06-05T04:20:47;8.83;;;5.73;;
12271;SDS011;6198;51.446;6.698;2023-06-05T04:23:13;9.07;;;5.30;;
12271;SDS011;6198;51.446;6.698;2023-06-05T04:25:39;7.83;;;5.50;;
12271;SDS011;6198;51.446;6.698;2023-06-05T04:28:10;9.33;;;5.80;;
12271;SDS011;6198;51.446;6.698;2023-06-05T04:30:36;8.50;;;6.00;;
12271;SDS011;6198;51.446;6.698;2023-06-05T04:33:03;9.47;;;5.77;;
12271;SDS011;6198;51.446;6.698;2023-06-05T04:35:31;7.87;;;5.73;;
12271;SDS011;6198;51.446;6.698;2023-06-05T04:37:58;8.03;;;5.80;;
12271;SDS011;6198;51.446;6.698;2023-06-05T04:40:25;11.87;;;6.07;;
12271;SDS011;6198;51.446;6.698;2023-06-05T04:42:51;10.83;;;6.33;;
12271;SDS011;6198;51.446;6.698;2023-06-05T04:45:19;9.70;;;5.80;;
12271;SDS011;6198;51.446;6.698;2023-06-05T04:47:46;6.97;;;5.50;;
12271;SDS011;6198;51.446;6.698;2023-06-05T04:50:33;7.97;;;5.33;;
12271;SDS011;6198;51.446;6.698;2023-06-05T04:52:58;12.63;;;5.37;;
12271;SDS011;6198;51.446;6.698;2023-06-05T04:55:24;7.93;;;5.27;;
12271;SDS011;6198;51.446;6.698;2023-06-05T04:57:50;7.17;;;5.03;;
12271;SDS011;6198;51.446;6.698;2023-06-05T05:00:18;5.60;;;4.77;;
12271;SDS011;6198;51.446;6.698;2023-06-05T05:02:44;5.37;;;4.87;;
12271;SDS011;6198;51.446;6.698;2023-06-05T05:05:10;6.63;;;4.90;;
12271;SDS011;6198;51.446;6.698;2023-06-05T05:07:39;7.90;;;5.20;;
12271;SDS011;6198;51.446;6.698;2023-06-05T05:10:06;9.90;;;4.77;;
12271;SDS011;6198;51.446;6.698;2023-06-05T05:12:33;10.00;;;5.27;;
12271;SDS011;6198;51.446;6.698;2023-06-05T05:14:59;6.73;;;5.60;;
12271;SDS011;6198;51.446;6.698;2023-06-05T05:17:25;6.60;;;5.40;;
12271;SDS011;6198;51.446;6.698;2023-06-05T05:19:51;5.63;;;5.10;;
12271;SDS011;6198;51.446;6.698;2023-06-05T05:22:17;7.17;;;5.80;;
12271;SDS011;6198;51.446;6.698;2023-06-05T05:24:43;6.17;;;5.53;;
12271;SDS011;6198;51.446;6.698;2023-06-05T05:27:09;9.93;;;5.60;;
12271;SDS011;6198;51.446;6.698;2023-06-05T05:29:35;8.47;;;5.27;;
12271;SDS011;6198;51.446;6.698;2023-06-05T05:32:01;8.07;;;5.83;;
12271;SDS011;6198;51.446;6.698;2023-06-05T05:34:27;9.47;;;5.93;;
12271;SDS011;6198;51.446;6.698;2023-06-05T05:36:53;8.90;;;5.60;;
12271;SDS011;6198;51.446;6.698;2023-06-05T05:39:19;7.10;;;5.80;;
12271;SDS011;6198;51.446;6.698;2023-06-05T05:41:45;10.13;;;6.13;;
12271;SDS011;6198;51.446;6.698;2023-06-05T05:44:11;8.30;;;5.50;;
12271;SDS011;6198;51.446;6.698;2023-06-05T05:46:37;7.43;;;5.00;;
12271;SDS011;6198;51.446;6.698;2023-06-05T05:49:02;7.27;;;5.40;;
12271;SDS011;6198;51.446;6.698;2023-06-05T05:51:28;8.10;;;5.77;;
12271;SDS011;6198;51.446;6.698;2023-06-05T05:53:55;9.17;;;5.80;;
12271;SDS011;6198;51.446;6.698;2023-06-05T05:56:21;7.50;;;5.03;;
12271;SDS011;6198;51.446;6.698;2023-06-05T05:58:46;7.87;;;5.30;;
12271;SDS011;6198;51.446;6.698;2023-06-05T06:01:12;13.67;;;5.83;;
12271;SDS011;6198;51.446;6.698;2023-06-05T06:03:38;6.70;;;5.30;;
12271;SDS011;6198;51.446;6.698;2023-06-05T06:06:05;9.80;;;5.30;;
12271;SDS011;6198;51.446;6.698;2023-06-05T06:08:34;9.00;;;5.33;;
12271;SDS011;6198;51.446;6.698;2023-06-05T06:11:00;7.63;;;5.93;;
12271;SDS011;6198;51.446;6.698;2023-06-05T06:13:31;10.33;;;5.73;;
12271;SDS011;6198;51.446;6.698;2023-06-05T06:15:58;6.57;;;5.73;;
12271;SDS011;6198;51.446;6.698;2023-06-05T06:18:23;6.40;;;5.70;;
12271;SDS011;6198;51.446;6.698;2023-06-05T06:20:50;15.10;;;6.00;;
12271;SDS011;6198;51.446;6.698;2023-06-05T06:23:16;9.27;;;5.37;;
12271;SDS011;6198;51.446;6.698;2023-06-05T06:25:42;11.73;;;6.40;;
12271;SDS011;6198;51.446;6.698;2023-06-05T06:28:08;9.10;;;5.10;;
12271;SDS011;6198;51.446;6.698;2023-06-05T06:30:34;10.27;;;5.43;;
12271;SDS011;6198;51.446;6.698;2023-06-05T06:33:01;10.73;;;6.00;;
12271;SDS011;6198;51.446;6.698;2023-06-05T06:35:29;12.83;;;6.13;;
12271;SDS011;6198;51.446;6.698;2023-06-05T06:37:56;7.27;;;5.90;;
12271;SDS011;6198;51.446;6.698;2023-06-05T06:40:22;9.40;;;5.83;;
12271;SDS011;6198;51.446;6.698;2023-06-05T06:42:49;7.03;;;5.83;;
12271;SDS011;6198;51.446;6.698;2023-06-05T06:45:15;7.93;;;5.80;;
12271;SDS011;6198;51.446;6.698;2023-06-05T06:47:42;9.10;;;5.77;;
12271;SDS011;6198;51.446;6.698;2023-06-05T06:50:08;9.50;;;5.80;;
12271;SDS011;6198;51.446;6.698;2023-06-05T06:52:34;8.10;;;5.50;;
12271;SDS011;6198;51.446;6.698;2023-06-05T06:55:00;9.27;;;5.43;;
12271;SDS011;6198;51.446;6.698;2023-06-05T06:57:26;8.13;;;5.63;;
12271;SDS011;6198;51.446;6.698;2023-06-05T06:59:52;7.70;;;5.37;;
12271;SDS011;6198;51.446;6.698;2023-06-05T07:02:19;11.77;;;5.77;;
12271;SDS011;6198;51.446;6.698;2023-06-05T07:04:45;7.83;;;5.63;;
12271;SDS011;6198;51.446;6.698;2023-06-05T07:07:12;9.17;;;5.50;;
12271;SDS011;6198;51.446;6.698;2023-06-05T07:09:39;7.90;;;5.53;;
12271;SDS011;6198;51.446;6.698;2023-06-05T07:12:05;9.63;;;5.93;;
12271;SDS011;6198;51.446;6.698;2023-06-05T07:14:32;8.77;;;5.63;;
12271;SDS011;6198;51.446;6.698;2023-06-05T07:16:58;7.10;;;5.23;;
12271;SDS011;6198;51.446;6.698;2023-06-05T07:19:25;11.50;;;6.50;;
12271;SDS011;6198;51.446;6.698;2023-06-05T07:21:52;7.70;;;5.10;;
12271;SDS011;6198;51.446;6.698;2023-06-05T07:24:18;7.83;;;5.30;;
12271;SDS011;6198;51.446;6.698;2023-06-05T07:26:44;11.80;;;5.67;;
12271;SDS011;6198;51.446;6.698;2023-06-05T07:29:10;6.23;;;4.93;;
12271;SDS011;6198;51.446;6.698;2023-06-05T07:31:36;8.70;;;6.47;;
12271;SDS011;6198;51.446;6.698;2023-06-05T07:34:03;9.20;;;6.10;;
12271;SDS011;6198;51.446;6.698;2023-06-05T07:36:30;9.40;;;6.03;;
12271;SDS011;6198;51.446;6.698;2023-06-05T07:38:56;8.87;;;6.40;;
12271;SDS011;6198;51.446;6.698;2023-06-05T07:41:23;11.93;;;6.17;;
12271;SDS011;6198;51.446;6.698;2023-06-05T07:43:50;14.00;;;5.87;;
12271;SDS011;6198;51.446;6.698;2023-06-05T07:46:16;10.80;;;6.90;;
12271;SDS011;6198;51.446;6.698;2023-06-05T07:48:42;9.10;;;6.90;;
12271;SDS011;6198;51.446;6.698;2023-06-05T07:51:08;13.60;;;7.00;;
12271;SDS011;6198;51.446;6.698;2023-06-05T07:53:34;9.77;;;6.80;;
12271;SDS011;6198;51.446;6.698;2023-06-05T07:56:00;13.03;;;7.30;;
12271;SDS011;6198;51.446;6.698;2023-06-05T07:58:26;12.13;;;6.90;;
12271;SDS011;6198;51.446;6.698;2023-06-05T08:00:54;15.27;;;6.60;;
12271;SDS011;6198;51.446;6.698;2023-06-05T08:03:21;10.63;;;6.90;;
12271;SDS011;6198;51.446;6.698;2023-06-05T08:05:48;16.43;;;6.70;;
12271;SDS011;6198;51.446;6.698;2023-06-05T08:08:17;12.33;;;6.30;;
12271;SDS011;6198;51.446;6.698;2023-06-05T08:10:44;10.93;;;7.17;;
12271;SDS011;6198;51.446;6.698;2023-06-05T08:13:10;15.93;;;7.87;;
12271;SDS011;6198;51.446;6.698;2023-06-05T08:15:36;13.40;;;8.37;;
12271;SDS011;6198;51.446;6.698;2023-06-05T08:18:02;23.03;;;8.83;;
12271;SDS011;6198;51.446;6.698;2023-06-05T08:20:28;17.77;;;7.90;;
12271;SDS011;6198;51.446;6.698;2023-06-05T08:22:54;15.57;;;7.73;;
12271;SDS011;6198;51.446;6.698;2023-06-05T08:25:24;13.00;;;7.27;;
12271;SDS011;6198;51.446;6.698;2023-06-05T08:27:50;12.27;;;6.97;;
12271;SDS011;6198;51.446;6.698;2023-06-05T08:30:16;10.60;;;6.60;;
12271;SDS011;6198;51.446;6.698;2023-06-05T08:32:42;15.50;;;6.33;;
12271;SDS011;6198;51.446;6.698;2023-06-05T08:35:09;13.27;;;7.23;;
12271;SDS011;6198;51.446;6.698;2023-06-05T08:37:38;16.37;;;7.17;;
12271;SDS011;6198;51.446;6.698;2023-06-05T08:40:05;13.07;;;6.37;;
12271;SDS011;6198;51.446;6.698;2023-06-05T08:42:33;11.70;;;6.73;;
12271;SDS011;6198;51.446;6.698;2023-06-05T08:44:59;14.00;;;6.70;;
12271;SDS011;6198;51.446;6.698;2023-06-05T08:47:27;21.67;;;7.20;;
12271;SDS011;6198;51.446;6.698;2023-06-05T08:49:54;12.43;;;6.13;;
12271;SDS011;6198;51.446;6.698;2023-06-05T08:52:21;13.57;;;6.60;;
12271;SDS011;6198;51.446;6.698;2023-06-05T08:54:48;15.70;;;6.40;;
12271;SDS011;6198;51.446;6.698;2023-06-05T08:57:15;16.60;;;5.87;;
12271;SDS011;6198;51.446;6.698;2023-06-05T08:59:41;12.83;;;5.83;;
12271;SDS011;6198;51.446;6.698;2023-06-05T09:02:08;15.40;;;6.53;;
12271;SDS011;6198;51.446;6.698;2023-06-05T09:04:34;14.03;;;6.63;;
12271;SDS011;6198;51.446;6.698;2023-06-05T09:07:00;9.10;;;6.00;;
12271;SDS011;6198;51.446;6.698;2023-06-05T09:09:27;15.23;;;5.17;;
12271;SDS011;6198;51.446;6.698;2023-06-05T09:14:28;14.83;;;6.50;;
12271;SDS011;6198;51.446;6.698;2023-06-05T09:16:56;8.77;;;5.80;;
12271;SDS011;6198;51.446;6.698;2023-06-05T09:19:22;14.83;;;5.77;;
12271;SDS011;6198;51.446;6.698;2023-06-05T09:21:52;5.80;;;4.43;;
12271;SDS011;6198;51.446;6.698;2023-06-05T09:24:19;9.57;;;5.70;;
12271;SDS011;6198;51.446;6.698;2023-06-05T09:26:47;12.13;;;6.23;;
12271;SDS011;6198;51.446;6.698;2023-06-05T09:29:13;13.63;;;5.90;;
12271;SDS011;6198;51.446;6.698;2023-06-05T09:31:42;12.40;;;6.80;;
12271;SDS011;6198;51.446;6.698;2023-06-05T09:34:08;20.97;;;7.50;;
12271;SDS011;6198;51.446;6.698;2023-06-05T09:36:36;16.33;;;7.23;;
12271;SDS011;6198;51.446;6.698;2023-06-05T09:39:13;16.00;;;8.00;;
12271;SDS011;6198;51.446;6.698;2023-06-05T09:41:43;24.37;;;10.93;;
12271;SDS011;6198;51.446;6.698;2023-06-05T09:44:09;18.50;;;8.77;;
12271;SDS011;6198;51.446;6.698;2023-06-05T09:49:20;11.07;;;5.83;;
12271;SDS011;6198;51.446;6.698;2023-06-05T09:51:47;10.73;;;5.53;;
12271;SDS011;6198;51.446;6.698;2023-06-05T09:54:13;10.80;;;5.30;;
12271;SDS011;6198;51.446;6.698;2023-06-05T09:56:41;7.80;;;5.10;;
12271;SDS011;6198;51.446;6.698;2023-06-05T09:59:07;11.20;;;4.37;;
12271;SDS011;6198;51.446;6.698;2023-06-05T10:01:36;7.23;;;4.40;;
12271;SDS011;6198;51.446;6.698;2023-06-05T10:04:06;8.00;;;4.77;;
12271;SDS011;6198;51.446;6.698;2023-06-05T10:06:32;14.77;;;5.57;;
12271;SDS011;6198;51.446;6.698;2023-06-05T10:08:59;10.90;;;4.30;;
12271;SDS011;6198;51.446;6.698;2023-06-05T10:11:25;13.17;;;4.10;;
12271;SDS011;6198;51.446;6.698;2023-06-05T10:13:52;8.30;;;4.07;;
12271;SDS011;6198;51.446;6.698;2023-06-05T10:16:18;7.63;;;4.23;;
12271;SDS011;6198;51.446;6.698;2023-06-05T10:18:48;9.60;;;5.10;;
12271;SDS011;6198;51.446;6.698;2023-06-05T10:21:15;5.13;;;4.13;;
12271;SDS011;6198;51.446;6.698;2023-06-05T10:23:42;11.53;;;5.00;;
12271;SDS011;6198;51.446;6.698;2023-06-05T10:26:11;7.33;;;4.80;;
12271;SDS011;6198;51.446;6.698;2023-06-05T10:28:48;9.27;;;4.77;;
12271;SDS011;6198;51.446;6.698;2023-06-05T10:31:18;8.80;;;4.47;;
12271;SDS011;6198;51.446;6.698;2023-06-05T10:33:51;12.07;;;4.17;;
12271;SDS011;6198;51.446;6.698;2023-06-05T10:38:57;5.30;;;4.23;;
12271;SDS011;6198;51.446;6.698;2023-06-05T10:41:25;5.50;;;3.60;;
12271;SDS011;6198;51.446;6.698;2023-06-05T10:43:54;4.20;;;2.67;;
12271;SDS011;6198;51.446;6.698;2023-06-05T10:49:14;7.23;;;2.73;;
12271;SDS011;6198;51.446;6.698;2023-06-05T10:51:51;5.83;;;4.20;;
12271;SDS011;6198;51.446;6.698;2023-06-05T10:59:17;12.50;;;3.87;;
12271;SDS011;6198;51.446;6.698;2023-06-05T11:01:54;10.87;;;3.90;;
12271;SDS011;6198;51.446;6.698;2023-06-05T11:07:22;7.33;;;3.33;;
12271;SDS011;6198;51.446;6.698;2023-06-05T11:12:15;6.17;;;3.37;;
12271;SDS011;6198;51.446;6.698;2023-06-05T11:14:45;4.80;;;3.60;;
12271;SDS011;6198;51.446;6.698;2023-06-05T11:17:33;6.57;;;3.53;;
12271;SDS011;6198;51.446;6.698;2023-06-05T11:20:00;6.40;;;3.63;;
12271;SDS011;6198;51.446;6.698;2023-06-05T11:22:29;9.67;;;3.47;;
12271;SDS011;6198;51.446;6.698;2023-06-05T11:30:14;4.67;;;3.23;;
12271;SDS011;6198;51.446;6.698;2023-06-05T11:32:40;8.80;;;4.00;;
12271;SDS011;6198;51.446;6.698;2023-06-05T11:35:07;4.03;;;3.50;;
12271;SDS011;6198;51.446;6.698;2023-06-05T11:37:33;7.03;;;3.73;;
12271;SDS011;6198;51.446;6.698;2023-06-05T11:40:01;6.67;;;3.63;;
12271;SDS011;6198;51.446;6.698;2023-06-05T11:42:36;8.43;;;3.70;;
12271;SDS011;6198;51.446;6.698;2023-06-05T11:45:12;7.30;;;3.70;;
12271;SDS011;6198;51.446;6.698;2023-06-05T11:47:38;4.93;;;3.90;;
12271;SDS011;6198;51.446;6.698;2023-06-05T11:50:11;6.40;;;3.73;;
12271;SDS011;6198;51.446;6.698;2023-06-05T11:52:38;6.13;;;4.03;;
12271;SDS011;6198;51.446;6.698;2023-06-05T11:55:14;4.47;;;3.77;;
12271;SDS011;6198;51.446;6.698;2023-06-05T11:57:41;6.80;;;4.03;;
12271;SDS011;6198;51.446;6.698;2023-06-05T12:00:10;5.97;;;3.60;;
12271;SDS011;6198;51.446;6.698;2023-06-05T12:02:36;6.90;;;3.80;;
12271;SDS011;6198;51.446;6.698;2023-06-05T12:05:02;6.17;;;4.20;;
12271;SDS011;6198;51.446;6.698;2023-06-05T12:07:32;6.50;;;4.10;;
12271;SDS011;6198;51.446;6.698;2023-06-05T12:10:01;4.43;;;3.77;;
12271;SDS011;6198;51.446;6.698;2023-06-05T12:12:28;12.30;;;3.77;;
12271;SDS011;6198;51.446;6.698;2023-06-05T12:14:55;7.07;;;4.77;;
12271;SDS011;6198;51.446;6.698;2023-06-05T12:17:23;4.60;;;3.60;;
12271;SDS011;6198;51.446;6.698;2023-06-05T12:19:53;8.97;;;4.30;;
12271;SDS011;6198;51.446;6.698;2023-06-05T12:22:19;12.03;;;4.10;;
12271;SDS011;6198;51.446;6.698;2023-06-05T12:24:45;6.57;;;4.17;;
12271;SDS011;6198;51.446;6.698;2023-06-05T12:27:12;4.83;;;4.30;;
12271;SDS011;6198;51.446;6.698;2023-06-05T12:29:39;12.73;;;4.07;;
12271;SDS011;6198;51.446;6.698;2023-06-05T12:32:20;4.47;;;3.90;;
12271;SDS011;6198;51.446;6.698;2023-06-05T12:34:47;4.87;;;3.80;;
12271;SDS011;6198;51.446;6.698;2023-06-05T12:39:48;4.70;;;3.70;;
12271;SDS011;6198;51.446;6.698;2023-06-05T12:42:14;13.23;;;4.10;;
12271;SDS011;6198;51.446;6.698;2023-06-05T12:44:40;6.53;;;3.80;;
12271;SDS011;6198;51.446;6.698;2023-06-05T12:47:06;6.00;;;4.00;;
12271;SDS011;6198;51.446;6.698;2023-06-05T12:49:32;4.03;;;3.63;;
12271;SDS011;6198;51.446;6.698;2023-06-05T12:51:58;6.87;;;4.00;;
12271;SDS011;6198;51.446;6.698;2023-06-05T12:54:26;6.30;;;4.00;;
12271;SDS011;6198;51.446;6.698;2023-06-05T12:56:52;5.93;;;4.30;;
12271;SDS011;6198;51.446;6.698;2023-06-05T12:59:20;4.60;;;4.00;;
12271;SDS011;6198;51.446;6.698;2023-06-05T13:01:47;4.83;;;4.07;;
12271;SDS011;6198;51.446;6.698;2023-06-05T13:04:13;6.07;;;4.30;;
12271;SDS011;6198;51.446;6.698;2023-06-05T13:06:40;4.67;;;4.13;;
12271;SDS011;6198;51.446;6.698;2023-06-05T13:09:06;7.77;;;4.23;;
12271;SDS011;6198;51.446;6.698;2023-06-05T13:11:32;4.47;;;4.07;;
12271;SDS011;6198;51.446;6.698;2023-06-05T13:13:58;6.07;;;3.70;;
12271;SDS011;6198;51.446;6.698;2023-06-05T13:16:25;5.23;;;4.13;;
12271;SDS011;6198;51.446;6.698;2023-06-05T13:18:51;3.97;;;3.60;;
12271;SDS011;6198;51.446;6.698;2023-06-05T13:21:17;6.87;;;3.63;;
12271;SDS011;6198;51.446;6.698;2023-06-05T13:23:43;10.50;;;4.00;;
12271;SDS011;6198;51.446;6.698;2023-06-05T13:26:09;6.97;;;4.50;;
12271;SDS011;6198;51.446;6.698;2023-06-05T13:28:35;6.67;;;4.37;;
12271;SDS011;6198;51.446;6.698;2023-06-05T13:31:01;18.60;;;4.80;;
12271;SDS011;6198;51.446;6.698;2023-06-05T13:33:28;5.40;;;4.67;;
12271;SDS011;6198;51.446;6.698;2023-06-05T13:35:54;6.27;;;4.33;;
12271;SDS011;6198;51.446;6.698;2023-06-05T13:38:20;5.37;;;4.80;;
12271;SDS011;6198;51.446;6.698;2023-06-05T13:40:46;15.13;;;4.93;;
12271;SDS011;6198;51.446;6.698;2023-06-05T13:43:14;6.57;;;4.83;;
12271;SDS011;6198;51.446;6.698;2023-06-05T13:45:40;6.40;;;4.10;;
12271;SDS011;6198;51.446;6.698;2023-06-05T13:48:07;6.53;;;4.55;;
12271;SDS011;6198;51.446;6.698;2023-06-05T13:50:33;4.95;;;4.45;;
12271;SDS011;6198;51.446;6.698;2023-06-05T13:52:59;7.10;;;4.45;;
12271;SDS011;6198;51.446;6.698;2023-06-05T13:55:24;5.65;;;4.40;;
12271;SDS011;6198;51.446;6.698;2023-06-05T13:57:50;7.60;;;4.30;;
12271;SDS011;6198;51.446;6.698;2023-06-05T14:00:16;7.27;;;4.27;;
12271;SDS011;6198;51.446;6.698;2023-06-05T14:02:42;5.97;;;4.50;;
12271;SDS011;6198;51.446;6.698;2023-06-05T14:07:36;4.97;;;4.43;;
12271;SDS011;6198;51.446;6.698;2023-06-05T14:10:02;28.23;;;4.50;;
12271;SDS011;6198;51.446;6.698;2023-06-05T14:12:29;6.40;;;4.60;;
12271;SDS011;6198;51.446;6.698;2023-06-05T14:14:55;6.07;;;4.80;;
12271;SDS011;6198;51.446;6.698;2023-06-05T14:17:21;9.50;;;4.70;;
12271;SDS011;6198;51.446;6.698;2023-06-05T14:19:47;6.97;;;4.47;;
12271;SDS011;6198;51.446;6.698;2023-06-05T14:22:12;14.30;;;4.67;;
12271;SDS011;6198;51.446;6.698;2023-06-05T14:24:39;5.30;;;4.70;;
12271;SDS011;6198;51.446;6.698;2023-06-05T14:27:05;7.70;;;4.80;;
12271;SDS011;6198;51.446;6.698;2023-06-05T14:29:32;6.90;;;4.50;;
12271;SDS011;6198;51.446;6.698;2023-06-05T14:32:00;5.23;;;4.30;;
12271;SDS011;6198;51.446;6.698;2023-06-05T14:34:26;12.37;;;4.53;;
12271;SDS011;6198;51.446;6.698;2023-06-05T14:36:52;7.07;;;4.20;;
12271;SDS011;6198;51.446;6.698;2023-06-05T14:39:18;4.57;;;4.17;;
12271;SDS011;6198;51.446;6.698;2023-06-05T14:41:45;5.83;;;4.50;;
12271;SDS011;6198;51.446;6.698;2023-06-05T14:44:11;7.43;;;4.30;;
12271;SDS011;6198;51.446;6.698;2023-06-05T14:46:37;11.57;;;4.73;;
12271;SDS011;6198;51.446;6.698;2023-06-05T14:49:03;5.30;;;4.20;;
12271;SDS011;6198;51.446;6.698;2023-06-05T14:51:29;5.50;;;4.00;;
12271;SDS011;6198;51.446;6.698;2023-06-05T14:53:55;6.20;;;4.30;;
12271;SDS011;6198;51.446;6.698;2023-06-05T14:56:21;6.27;;;4.10;;
12271;SDS011;6198;51.446;6.698;2023-06-05T14:58:47;8.93;;;4.43;;
12271;SDS011;6198;51.446;6.698;2023-06-05T15:01:13;10.17;;;4.33;;
12271;SDS011;6198;51.446;6.698;2023-06-05T15:03:39;8.00;;;5.50;;
12271;SDS011;6198;51.446;6.698;2023-06-05T15:06:05;8.03;;;4.80;;
12271;SDS011;6198;51.446;6.698;2023-06-05T15:08:31;4.40;;;4.00;;
12271;SDS011;6198;51.446;6.698;2023-06-05T15:10:57;6.07;;;4.20;;
12271;SDS011;6198;51.446;6.698;2023-06-05T15:13:23;6.37;;;4.07;;
12271;SDS011;6198;51.446;6.698;2023-06-05T15:15:49;12.20;;;3.90;;
12271;SDS011;6198;51.446;6.698;2023-06-05T15:18:15;9.80;;;4.13;;
12271;SDS011;6198;51.446;6.698;2023-06-05T15:20:41;6.00;;;3.87;;
12271;SDS011;6198;51.446;6.698;2023-06-05T15:23:07;6.20;;;3.47;;
12271;SDS011;6198;51.446;6.698;2023-06-05T15:25:33;5.00;;;4.00;;
12271;SDS011;6198;51.446;6.698;2023-06-05T15:28:00;5.50;;;4.17;;
12271;SDS011;6198;51.446;6.698;2023-06-05T15:30:26;7.60;;;4.20;;
12271;SDS011;6198;51.446;6.698;2023-06-05T15:32:52;7.43;;;4.37;;